Time;durP1;ratioP1;P1;durP2;ratioP2;P2;SDS_P1;SDS_P2;PMS_P1;PMS_P2;Temp;Humidity;BMP_temperature;BMP_pressure;BME280_temperature;BME280_humidity;BME280_pressure;Samples;Min_cycle;Max_cycle;Signal;HPM_P1;HPM_P2
2022/06/02 00:02:01;;;;;;;4.72;2.72;;;;;;;19.26;94.89;94620.97;5091716;28;20226;-63
2022/06/02 00:04:49;;;;;;;7.10;3.33;;;;;;;18.98;96.32;94618.31;5091946;28;20196;-63
2022/06/02 00:07:35;;;;;;;6.40;3.50;;;;;;;18.85;97.66;94619.91;5091789;28;20257;-62
2022/06/02 00:10:01;;;;;;;5.18;3.00;;;;;;;18.74;98.54;94621.19;5073874;28;20191;-60
2022/06/02 00:12:31;;;;;;;5.43;3.40;;;;;;;18.79;99.22;94624.00;5091782;28;20642;-64
2022/06/02 00:15:06;;;;;;;4.15;2.97;;;;;;;18.66;99.51;94623.06;5073411;28;20185;-61
2022/06/02 00:17:46;;;;;;;5.93;3.25;;;;;;;18.73;99.12;94624.75;5075983;28;20184;-61
2022/06/02 00:20:21;;;;;;;6.43;3.42;;;;;;;18.79;99.47;94625.78;5095424;28;20186;-63
2022/06/02 00:23:02;;;;;;;6.30;3.67;;;;;;;18.83;98.79;94635.56;5095695;28;20203;-64
2022/06/02 00:25:54;;;;;;;7.68;4.03;;;;;;;18.89;98.72;94634.03;5095072;28;20198;-62
2022/06/02 00:28:32;;;;;;;5.60;2.75;;;;;;;18.88;97.88;94637.59;5094469;28;20223;-61
2022/06/02 00:31:25;;;;;;;9.77;3.45;;;;;;;18.82;98.39;94633.97;5095220;28;20161;-65
2022/06/02 00:34:10;;;;;;;6.18;3.20;;;;;;;18.82;99.13;94623.66;5076870;28;20299;-64
2022/06/02 00:37:00;;;;;;;8.07;3.40;;;;;;;18.83;98.22;94635.56;5076777;28;20176;-61
2022/06/02 00:39:29;;;;;;;7.57;3.70;;;;;;;18.94;96.39;94648.00;5095298;28;20253;-63
2022/06/02 00:42:02;;;;;;;7.00;3.17;;;;;;;18.95;95.92;94648.75;5076622;28;20187;-64
2022/06/02 00:44:40;;;;;;;3.55;2.92;;;;;;;18.99;96.19;94632.78;5094989;28;20216;-63
2022/06/02 00:47:33;;;;;;;5.30;3.22;;;;;;;18.96;97.09;94632.34;5094791;28;20236;-63
2022/06/02 00:50:04;;;;;;;8.57;3.33;;;;;;;18.99;96.50;94639.69;5094969;28;20188;-62
2022/06/02 00:52:54;;;;;;;4.35;2.97;;;;;;;19.05;96.51;94638.97;5094849;28;20172;-61
2022/06/02 00:59:00;;;;;;;3.40;3.08;;;;;;;19.44;94.27;94649.75;5070618;28;20369;-61
2022/06/02 01:01:33;;;;;;;4.18;3.17;;;;;;;19.42;95.37;94631.06;5076455;28;20176;-64
2022/06/02 01:04:00;;;;;;;5.75;3.40;;;;;;;19.23;96.77;94634.22;5095225;28;20635;-63
2022/06/02 01:06:54;;;;;;;4.95;2.90;;;;;;;19.04;98.78;94620.16;5076138;28;20264;-61
2022/06/02 01:09:48;;;;;;;7.25;2.78;;;;;;;19.15;94.45;94660.91;5094813;28;20677;-61
2022/06/02 01:12:31;;;;;;;4.97;2.95;;;;;;;18.91;93.52;94660.41;5094383;28;20649;-61
2022/06/02 01:15:28;;;;;;;3.53;2.67;;;;;;;18.69;95.84;94646.69;5094507;28;20641;-65
2022/06/02 01:18:28;;;;;;;5.60;2.88;;;;;;;18.30;100.00;94613.44;5094193;28;20269;-61
2022/06/02 01:20:59;;;;;;;3.28;2.47;;;;;;;18.07;100.00;94617.91;5094378;28;20169;-62
2022/06/02 01:23:45;;;;;;;6.75;3.05;;;;;;;18.02;100.00;94627.09;5094484;28;20207;-62
2022/06/02 01:26:44;;;;;;;4.03;3.00;;;;;;;18.06;100.00;94621.44;5075928;28;20223;-60
2022/06/02 01:29:22;;;;;;;3.13;2.63;;;;;;;17.93;100.00;94616.09;5094335;28;20196;-63
2022/06/02 01:31:56;;;;;;;3.53;2.70;;;;;;;17.81;100.00;94621.84;5093917;28;20641;-60
2022/06/02 01:34:40;;;;;;;4.15;2.60;;;;;;;17.58;100.00;94614.97;5094497;28;20218;-65
2022/06/02 01:37:48;;;;;;;6.38;3.05;;;;;;;17.51;100.00;94616.59;5075586;28;20180;-63
2022/06/02 01:40:36;;;;;;;4.13;3.10;;;;;;;17.47;100.00;94629.97;5082810;28;20669;-63
2022/06/02 01:43:12;;;;;;;5.13;3.50;;;;;;;17.33;100.00;94630.72;5075477;28;20605;-64
2022/06/02 01:46:11;;;;;;;3.97;3.00;;;;;;;17.24;100.00;94631.72;5093701;28;20199;-61
2022/06/02 01:49:00;;;;;;;3.63;2.95;;;;;;;17.22;100.00;94620.81;5075809;28;20211;-62
2022/06/02 01:51:35;;;;;;;6.90;3.15;;;;;;;17.23;100.00;94630.13;5075487;28;20188;-63
2022/06/02 01:54:00;;;;;;;3.65;3.00;;;;;;;17.30;100.00;94629.28;5094028;28;20243;-63
2022/06/02 01:56:34;;;;;;;7.95;2.97;;;;;;;17.35;100.00;94633.91;5093675;28;20215;-64
2022/06/02 01:59:23;;;;;;;5.03;3.72;;;;;;;17.43;100.00;94633.84;5093283;28;20243;-62
2022/06/02 02:02:10;;;;;;;6.63;3.08;;;;;;;17.60;100.00;94635.34;5093525;28;20171;-61
2022/06/02 02:05:05;;;;;;;8.35;3.03;;;;;;;17.66;100.00;94633.84;5093433;28;20199;-64
2022/06/02 02:07:59;;;;;;;2.88;2.55;;;;;;;17.70;100.00;94637.66;5080147;28;20281;-62
2022/06/02 02:10:24;;;;;;;5.13;3.20;;;;;;;17.59;100.00;94639.69;5074989;28;20180;-61
2022/06/02 02:13:22;;;;;;;4.80;2.97;;;;;;;17.52;100.00;94625.94;5075131;28;20204;-64
2022/06/02 02:15:52;;;;;;;4.40;3.15;;;;;;;17.55;100.00;94624.78;5084749;28;20289;-61
2022/06/02 02:18:43;;;;;;;6.65;2.72;;;;;;;17.54;100.00;94626.56;5093230;28;20545;-62
2022/06/02 02:21:33;;;;;;;6.13;3.60;;;;;;;17.60;100.00;94630.19;5093228;28;20165;-64
2022/06/02 02:24:42;;;;;;;4.85;3.25;;;;;;;17.57;100.00;94621.06;5093376;28;20253;-62
2022/06/02 02:27:16;;;;;;;3.42;3.10;;;;;;;17.65;100.00;94625.34;5063785;28;20225;-62
2022/06/02 02:30:07;;;;;;;8.65;3.05;;;;;;;17.92;100.00;94639.41;5093198;28;20253;-64
2022/06/02 02:32:57;;;;;;;6.60;3.13;;;;;;;17.90;100.00;94631.06;5093130;28;20176;-64
2022/06/02 02:35:34;;;;;;;10.13;3.28;;;;;;;17.79;100.00;94645.16;5074634;28;20641;-64
2022/06/02 02:38:21;;;;;;;6.40;3.45;;;;;;;17.77;100.00;94646.31;5074645;28;20303;-65
2022/06/02 02:40:55;;;;;;;3.95;2.92;;;;;;;17.72;100.00;94641.69;5091937;28;20191;-63
2022/06/02 02:43:43;;;;;;;6.57;3.22;;;;;;;17.70;100.00;94628.19;5092972;28;20200;-64
2022/06/02 02:46:18;;;;;;;5.45;3.33;;;;;;;17.58;100.00;94624.44;5099873;22;20315;-62
2022/06/02 02:48:52;;;;;;;8.07;3.35;;;;;;;17.61;100.00;94621.53;5092599;28;20313;-65
2022/06/02 02:51:39;;;;;;;5.13;2.92;;;;;;;17.61;100.00;94629.25;5093083;28;20196;-62
2022/06/02 02:54:08;;;;;;;4.57;3.42;;;;;;;17.81;100.00;94648.38;5092297;28;20279;-63
2022/06/02 02:57:04;;;;;;;9.05;3.10;;;;;;;17.89;100.00;94650.88;5092412;28;20164;-63
2022/06/02 03:00:07;;;;;;;8.52;3.38;;;;;;;17.74;100.00;94646.63;5074277;28;20215;-64
2022/06/02 03:03:09;;;;;;;4.90;2.65;;;;;;;17.73;100.00;94645.84;5043467;28;20216;-63
2022/06/02 03:06:12;;;;;;;6.88;3.05;;;;;;;17.66;100.00;94639.78;5059787;28;20242;-64
2022/06/02 03:08:37;;;;;;;3.55;2.85;;;;;;;17.65;100.00;94633.06;5073810;28;20207;-64
2022/06/02 03:11:22;;;;;;;5.30;3.00;;;;;;;17.45;100.00;94637.06;5092610;28;20184;-62
2022/06/02 03:14:03;;;;;;;7.00;3.58;;;;;;;17.38;100.00;94641.25;5092063;28;20196;-64
2022/06/02 03:16:32;;;;;;;6.32;3.42;;;;;;;17.06;100.00;94633.75;5092043;28;20179;-61
2022/06/02 03:19:41;;;;;;;4.43;3.47;;;;;;;16.94;100.00;94642.81;5091954;28;20700;-63
2022/06/02 03:22:12;;;;;;;13.15;3.90;;;;;;;17.03;100.00;94639.25;5076101;28;20204;-63
2022/06/02 03:24:55;;;;;;;6.80;3.80;;;;;;;17.12;100.00;94643.34;5073857;28;20208;-64
2022/06/02 03:27:28;;;;;;;11.82;4.03;;;;;;;17.31;100.00;94650.63;5091994;28;20211;-65
2022/06/02 03:30:02;;;;;;;5.40;4.07;;;;;;;17.37;100.00;94650.75;5092130;28;20202;-62
2022/06/02 03:32:52;;;;;;;5.38;4.53;;;;;;;17.50;100.00;94658.72;5092056;28;20306;-61
2022/06/02 03:35:36;;;;;;;7.20;4.50;;;;;;;17.59;100.00;94646.63;5092077;28;20581;-62
2022/06/02 03:38:29;;;;;;;9.00;4.60;;;;;;;17.58;100.00;94657.84;5091640;28;20196;-61
2022/06/02 03:41:24;;;;;;;8.38;5.13;;;;;;;17.75;100.00;94655.97;5092258;28;20188;-61
2022/06/02 03:43:58;;;;;;;10.55;4.60;;;;;;;17.73;100.00;94648.44;5091973;28;20211;-64
2022/06/02 03:46:39;;;;;;;8.85;4.72;;;;;;;17.82;100.00;94642.22;5092221;28;20221;-64
2022/06/02 03:49:24;;;;;;;6.40;4.72;;;;;;;17.96;100.00;94646.59;5091595;28;20215;-64
2022/06/02 03:52:11;;;;;;;7.40;4.35;;;;;;;18.38;100.00;94651.97;5094797;28;20269;-64
2022/06/02 03:54:39;;;;;;;6.40;4.75;;;;;;;18.48;100.00;94664.63;5096145;28;20226;-63
2022/06/02 03:57:13;;;;;;;10.35;4.82;;;;;;;18.25;100.00;94656.16;5095904;28;20192;-66
2022/06/02 04:00:10;;;;;;;10.30;4.80;;;;;;;18.37;100.00;94665.84;5095661;28;20676;-61
2022/06/02 04:03:05;;;;;;;10.32;5.78;;;;;;;18.49;100.00;94662.84;5077495;28;20232;-63
2022/06/02 04:05:55;;;;;;;11.55;5.55;;;;;;;18.42;100.00;94655.78;5096091;28;20211;-66
2022/06/02 04:08:38;;;;;;;8.48;4.60;;;;;;;18.13;100.00;94658.34;5095803;28;20196;-64
2022/06/02 04:11:03;;;;;;;12.15;4.82;;;;;;;18.13;100.00;94671.22;5096193;28;20188;-63
2022/06/02 04:13:53;;;;;;;8.30;4.65;;;;;;;18.16;100.00;94660.56;5095847;28;20279;-63
2022/06/02 04:16:22;;;;;;;4.93;3.97;;;;;;;18.27;100.00;94669.63;5096259;28;20185;-64
2022/06/02 04:18:56;;;;;;;7.53;4.13;;;;;;;18.26;100.00;94665.47;5095490;28;20207;-62
2022/06/02 04:21:47;;;;;;;7.53;4.60;;;;;;;18.15;100.00;94653.03;5077357;28;20239;-64
2022/06/02 04:24:34;;;;;;;9.80;5.53;;;;;;;18.18;100.00;94650.13;5095415;28;20679;-63
2022/06/02 04:27:25;;;;;;;8.32;4.07;;;;;;;18.15;100.00;94642.75;5095380;28;20204;-62
2022/06/02 04:30:16;;;;;;;7.75;4.47;;;;;;;18.35;100.00;94659.25;5091369;28;20197;-63
2022/06/02 04:33:03;;;;;;;10.98;4.47;;;;;;;18.35;100.00;94651.53;5095342;28;20204;-62
2022/06/02 04:35:57;;;;;;;5.30;3.83;;;;;;;18.44;100.00;94664.16;5095731;28;20184;-65
2022/06/02 04:38:40;;;;;;;13.70;4.65;;;;;;;18.38;100.00;94662.28;5095199;28;20326;-62
2022/06/02 04:41:30;;;;;;;6.32;4.32;;;;;;;18.23;100.00;94653.75;5095440;28;20251;-64
2022/06/02 04:44:15;;;;;;;7.28;4.93;;;;;;;18.24;100.00;94662.28;5076956;28;20212;-64
2022/06/02 04:47:30;;;;;;;4.57;3.70;;;;;;;18.25;100.00;94662.09;5076635;28;20847;-63
2022/06/02 04:50:04;;;;;;;14.77;4.13;;;;;;;18.33;100.00;94668.94;5094922;28;20188;-61
2022/06/02 04:52:50;;;;;;;4.65;4.00;;;;;;;18.29;100.00;94665.13;5076639;28;20175;-62
2022/06/02 04:55:29;;;;;;;6.22;4.18;;;;;;;18.39;100.00;94670.81;5095082;28;20188;-61
2022/06/02 04:58:17;;;;;;;11.90;4.28;;;;;;;18.33;100.00;94667.16;5094669;28;20286;-63
2022/06/02 05:00:54;;;;;;;7.68;4.15;;;;;;;18.51;100.00;94681.50;5076344;28;20185;-62
2022/06/02 05:03:33;;;;;;;6.63;4.30;;;;;;;18.59;100.00;94689.94;5075520;28;20277;-62
2022/06/02 05:06:13;;;;;;;7.03;4.53;;;;;;;18.79;100.00;94695.34;5095063;28;20219;-63
2022/06/02 05:09:00;;;;;;;11.30;4.95;;;;;;;18.87;100.00;94687.50;5102317;22;20220;-63
2022/06/02 05:11:49;;;;;;;7.68;5.13;;;;;;;18.87;100.00;94679.78;5094619;28;20164;-64
2022/06/02 05:14:36;;;;;;;7.18;4.60;;;;;;;18.66;100.00;94674.56;5095041;28;20207;-61
2022/06/02 05:17:26;;;;;;;11.90;5.95;;;;;;;18.70;100.00;94674.03;5076129;28;20180;-62
2022/06/02 05:20:12;;;;;;;10.18;6.80;;;;;;;18.82;100.00;94667.47;5094315;28;20331;-60
2022/06/02 05:23:20;;;;;;;10.90;7.57;;;;;;;18.87;100.00;94664.31;5094211;28;20306;-65
2022/06/02 05:26:05;;;;;;;10.30;6.13;;;;;;;18.94;100.00;94678.91;5083181;28;20216;-61
2022/06/02 05:28:36;;;;;;;9.93;6.15;;;;;;;19.26;100.00;94693.94;5094438;28;20287;-63
2022/06/02 05:31:30;;;;;;;12.43;5.97;;;;;;;19.65;100.00;94709.06;5093988;28;20208;-65
2022/06/02 05:33:58;;;;;;;9.45;5.65;;;;;;;19.75;100.00;94646.84;5094263;28;20278;-61
2022/06/02 05:36:31;;;;;;;12.50;5.85;;;;;;;19.94;100.00;94659.91;5094301;28;20249;-63
2022/06/02 05:39:32;;;;;;;10.95;5.63;;;;;;;20.26;100.00;94673.28;5094390;28;20204;-63
2022/06/02 05:41:57;;;;;;;16.10;7.35;;;;;;;20.43;100.00;94688.31;5082697;28;20192;-64
2022/06/02 05:44:41;;;;;;;15.00;6.88;;;;;;;20.28;100.00;94705.66;5075498;28;20556;-65
2022/06/02 05:47:15;;;;;;;9.63;6.82;;;;;;;20.23;100.00;94696.88;5093774;28;20750;-61
2022/06/02 05:50:29;;;;;;;13.10;6.40;;;;;;;20.42;100.00;94722.06;5093541;28;20282;-63
2022/06/02 05:53:17;;;;;;;15.88;7.30;;;;;;;20.00;100.00;94699.66;5075220;28;20651;-66
2022/06/02 05:56:03;;;;;;;11.70;8.02;;;;;;;19.68;100.00;94703.53;5093536;28;20263;-65
2022/06/02 05:58:58;;;;;;;10.82;6.20;;;;;;;19.85;100.00;94709.25;5093782;28;20235;-66
2022/06/02 06:01:27;;;;;;;15.10;7.15;;;;;;;19.73;100.00;94698.63;5093162;28;20188;-64
2022/06/02 06:03:55;;;;;;;13.32;7.28;;;;;;;20.16;100.00;94706.34;5093613;28;20200;-66
2022/06/02 06:06:21;;;;;;;8.82;5.82;;;;;;;20.07;100.00;94693.56;5093230;28;20211;-64
2022/06/02 06:08:57;;;;;;;15.63;7.30;;;;;;;20.26;100.00;94706.84;5093498;28;20219;-65
2022/06/02 06:12:00;;;;;;;16.05;6.38;;;;;;;19.74;100.00;94682.16;5093295;28;20691;-60
2022/06/02 06:14:50;;;;;;;10.55;7.28;;;;;;;20.22;100.00;94697.88;5092944;28;20580;-65
2022/06/02 06:17:47;;;;;;;12.82;7.45;;;;;;;20.32;100.00;94682.88;5093077;28;20661;-65
2022/06/02 06:20:39;;;;;;;10.38;6.63;;;;;;;20.44;100.00;94718.28;5074569;28;20696;-62
2022/06/02 06:23:15;;;;;;;9.77;5.90;;;;;;;20.17;100.00;94672.59;5051486;28;20239;-65
2022/06/02 06:25:48;;;;;;;12.02;6.05;;;;;;;20.46;100.00;94693.06;5092895;28;20274;-63
2022/06/02 06:28:20;;;;;;;8.52;5.20;;;;;;;20.52;99.67;94718.16;5074603;28;20200;-65
2022/06/02 06:31:19;;;;;;;9.88;4.97;;;;;;;20.30;100.00;94680.44;5074483;28;20184;-65
2022/06/02 06:33:56;;;;;;;10.18;5.93;;;;;;;20.37;100.00;94680.50;5093105;28;20224;-67
2022/06/02 06:36:49;;;;;;;10.73;5.55;;;;;;;20.48;100.00;94696.25;5081768;22;20224;-64
2022/06/02 06:39:26;;;;;;;10.68;6.60;;;;;;;20.28;100.00;94700.50;5092479;28;20196;-61
2022/06/02 06:41:52;;;;;;;18.52;8.48;;;;;;;20.33;100.00;94680.09;5074055;28;20190;-65
2022/06/02 06:44:39;;;;;;;13.98;5.13;;;;;;;20.34;100.00;94670.56;5074072;28;20619;-66
2022/06/02 06:47:15;;;;;;;14.25;5.70;;;;;;;20.33;100.00;94674.13;5074198;28;20302;-64
2022/06/02 06:50:04;;;;;;;10.18;5.55;;;;;;;20.86;98.12;94720.78;5073854;28;20191;-69
2022/06/02 06:53:15;;;;;;;14.38;5.32;;;;;;;20.99;97.71;94706.31;5083824;28;20200;-65
2022/06/02 06:56:21;;;;;;;7.65;4.70;;;;;;;21.04;94.52;94725.47;5092338;28;20203;-61
2022/06/02 06:59:07;;;;;;;13.38;7.38;;;;;;;21.29;93.03;94736.91;5073965;28;20573;-68
2022/06/02 07:01:32;;;;;;;10.45;7.38;;;;;;;21.44;91.96;94744.50;5092557;28;20621;-67
2022/06/02 07:04:36;;;;;;;8.82;4.88;;;;;;;21.52;89.37;94760.69;5092142;28;20196;-67
2022/06/02 07:07:28;;;;;;;12.95;7.22;;;;;;;21.36;91.96;94721.41;5069420;28;20273;-67
2022/06/02 07:10:00;;;;;;;11.57;9.25;;;;;;;21.49;90.36;94745.53;5088719;28;20652;-62
2022/06/02 07:12:55;;;;;;;10.23;5.18;;;;;;;21.59;87.30;94768.47;5091806;28;20212;-66
2022/06/02 07:15:40;;;;;;;5.93;4.88;;;;;;;21.60;88.36;94750.16;5060772;28;20222;-65
2022/06/02 07:18:24;;;;;;;10.00;4.47;;;;;;;21.45;88.55;94739.13;5073712;28;20200;-66
2022/06/02 07:20:58;;;;;;;10.25;4.55;;;;;;;21.51;90.40;94722.06;5092156;28;20743;-66
2022/06/02 07:23:47;;;;;;;11.45;5.28;;;;;;;21.70;89.75;94742.00;5073656;28;20200;-68
2022/06/02 07:26:35;;;;;;;7.72;4.32;;;;;;;21.77;89.03;94746.19;5073295;28;20669;-69
2022/06/02 07:29:05;;;;;;;8.52;5.05;;;;;;;22.10;86.76;94771.41;5091815;28;20230;-67
2022/06/02 07:31:49;;;;;;;12.02;4.95;;;;;;;22.12;88.21;94749.47;5075320;22;20233;-65
2022/06/02 07:34:23;;;;;;;11.93;5.65;;;;;;;22.04;86.93;94761.84;5051394;28;20196;-63
2022/06/02 07:37:07;;;;;;;14.75;5.63;;;;;;;22.17;89.00;94734.16;5051883;28;20612;-70
2022/06/02 07:42:37;;;;;;;12.05;4.70;;;;;;;22.52;86.73;94756.25;5104753;22;20290;-63
2022/06/02 07:45:19;;;;;;;15.02;5.05;;;;;;;22.59;86.57;94748.53;5075824;22;20592;-69
2022/06/02 07:55:49;;;;;;;8.68;4.82;;;;;;;23.21;83.98;94785.13;5138207;22;20227;-70
2022/06/02 07:58:50;;;;;;;9.63;5.10;;;;;;;23.18;83.22;94785.53;5129322;22;20224;-63
2022/06/02 08:01:19;;;;;;;10.68;4.85;;;;;;;23.20;83.41;94780.94;5095629;22;20220;-68
2022/06/02 08:04:30;;;;;;;11.45;5.05;;;;;;;23.29;84.19;94760.78;5099948;22;20225;-63
2022/06/02 08:07:12;;;;;;;8.45;4.55;;;;;;;23.38;80.52;94800.28;5051553;22;20228;-68
2022/06/02 08:12:28;;;;;;;9.10;5.45;;;;;;;23.68;80.30;94801.34;5163867;22;20235;-69
2022/06/02 08:15:12;;;;;;;11.95;4.72;;;;;;;23.76;78.70;94827.09;5085635;22;20224;-68
2022/06/02 08:17:50;;;;;;;9.70;4.93;;;;;;;23.70;81.29;94775.97;5091192;28;20246;-64
2022/06/02 08:23:02;;;;;;;8.52;5.88;;;;;;;23.68;77.62;94796.16;5117098;22;20234;-67
2022/06/02 08:25:39;;;;;;;6.88;4.25;;;;;;;23.68;79.41;94780.59;5104837;22;20721;-68
2022/06/02 08:31:20;;;;;;;10.80;5.18;;;;;;;23.72;78.78;94786.97;5099058;22;20594;-64
2022/06/02 08:34:13;;;;;;;9.77;5.07;;;;;;;24.04;79.43;94776.44;5091507;28;20204;-65
2022/06/02 08:37:03;;;;;;;9.07;4.97;;;;;;;24.32;75.86;94828.03;5091472;28;20532;-68
2022/06/02 08:39:58;;;;;;;9.15;4.00;;;;;;;24.39;71.15;94885.19;5095178;28;20200;-65
2022/06/02 08:42:53;;;;;;;6.65;4.30;;;;;;;24.43;71.11;94873.34;5076988;28;20161;-65
2022/06/02 08:45:51;;;;;;;5.47;3.72;;;;;;;24.50;69.75;94880.13;5095350;28;20538;-68
2022/06/02 08:48:31;;;;;;;11.57;3.83;;;;;;;24.37;72.54;94823.00;5094683;28;20212;-67
2022/06/02 08:53:31;;;;;;;6.15;3.67;;;;;;;24.23;68.05;94883.88;5101637;22;20232;-66
2022/06/02 08:55:59;;;;;;;8.23;3.80;;;;;;;24.36;68.14;94878.59;5094501;28;20177;-65
2022/06/02 08:58:58;;;;;;;7.47;4.10;;;;;;;24.67;67.30;94888.19;5094596;28;20204;-66
2022/06/02 09:01:32;;;;;;;4.53;2.85;;;;;;;24.97;63.04;94965.47;5094143;28;20239;-65
2022/06/02 09:04:09;;;;;;;6.75;3.67;;;;;;;25.11;67.31;94859.47;5094451;28;20200;-70
2022/06/02 09:07:11;;;;;;;5.47;3.72;;;;;;;25.28;66.75;94877.94;5094518;28;20212;-65
2022/06/02 09:10:14;;;;;;;8.27;3.90;;;;;;;25.48;66.31;94889.81;5094289;28;20196;-67
2022/06/02 09:12:54;;;;;;;4.97;3.63;;;;;;;25.62;64.32;94914.69;5102002;22;20216;-64
2022/06/02 09:15:27;;;;;;;7.80;3.33;;;;;;;25.83;62.37;94949.97;5074087;28;20177;-65
2022/06/02 09:18:23;;;;;;;3.63;2.75;;;;;;;26.14;63.93;94881.28;5074115;28;20204;-66
2022/06/02 09:21:06;;;;;;;4.57;3.03;;;;;;;26.47;57.34;94985.97;5072631;28;20169;-65
2022/06/02 09:23:44;;;;;;;5.28;3.38;;;;;;;26.42;57.82;94970.19;5074235;28;20258;-63
2022/06/02 09:26:25;;;;;;;7.80;3.00;;;;;;;26.64;50.96;95092.09;5055759;28;20192;-66
2022/06/02 09:28:59;;;;;;;5.38;2.47;;;;;;;26.62;50.43;95047.16;5074236;28;20209;-64
2022/06/02 09:31:39;;;;;;;4.80;2.40;;;;;;;26.80;54.80;94908.09;5055831;28;20169;-64
2022/06/02 09:34:19;;;;;;;6.30;2.45;;;;;;;26.78;50.11;95045.81;5073788;28;20574;-67
2022/06/02 09:36:47;;;;;;;4.40;2.53;;;;;;;26.54;48.97;95052.69;5073661;28;20161;-62
2022/06/02 09:39:18;;;;;;;6.00;2.67;;;;;;;26.62;49.49;95022.91;5073762;28;20212;-67
2022/06/02 09:42:21;;;;;;;6.03;2.70;;;;;;;26.64;49.22;95019.03;5073348;28;20717;-62
2022/06/02 09:45:16;;;;;;;6.70;3.00;;;;;;;26.91;50.75;94963.94;5073214;28;20634;-64
2022/06/02 09:48:00;;;;;;;6.82;3.20;;;;;;;27.31;47.88;95056.38;5020003;28;20674;-63
2022/06/02 09:50:43;;;;;;;5.30;3.25;;;;;;;27.35;50.43;94964.28;5073429;28;20173;-67
2022/06/02 09:53:38;;;;;;;4.78;2.80;;;;;;;27.52;50.52;94956.59;5071923;28;20220;-61
2022/06/02 09:56:09;;;;;;;6.03;3.00;;;;;;;27.77;46.44;95069.56;5073187;28;20165;-64
2022/06/02 09:58:45;;;;;;;8.45;2.05;;;;;;;27.95;42.90;95147.94;5071619;28;20205;-63
2022/06/02 10:01:55;;;;;;;2.65;1.73;;;;;;;27.88;42.93;95118.44;5073193;28;20177;-69
2022/06/02 10:04:32;;;;;;;6.40;2.22;;;;;;;27.81;38.70;95068.09;5064524;28;20724;-63
2022/06/02 10:07:28;;;;;;;4.78;2.13;;;;;;;27.85;37.55;95052.75;5055126;28;20207;-68
2022/06/02 10:10:10;;;;;;;5.13;2.20;;;;;;;28.28;36.77;95026.28;5054953;28;20242;-66
2022/06/02 10:13:06;;;;;;;8.07;2.80;;;;;;;28.18;39.13;94943.13;5072858;28;20719;-64
2022/06/02 10:15:42;;;;;;;4.35;2.40;;;;;;;28.67;39.16;94962.69;5072941;28;20257;-68
2022/06/02 10:18:19;;;;;;;6.65;2.70;;;;;;;28.58;38.13;94974.59;5072946;28;20201;-66
2022/06/02 10:21:00;;;;;;;4.65;2.20;;;;;;;28.98;42.22;94871.38;5072861;28;20547;-62
2022/06/02 10:23:53;;;;;;;4.28;2.25;;;;;;;29.18;37.71;94943.47;5072964;28;20204;-63
2022/06/02 10:26:55;;;;;;;2.75;2.15;;;;;;;29.37;39.74;94905.53;5072570;28;20288;-68
2022/06/02 10:29:24;;;;;;;6.07;2.38;;;;;;;29.48;35.58;94991.13;5072867;28;20295;-62
2022/06/02 10:32:05;;;;;;;7.55;2.30;;;;;;;29.51;36.61;94944.25;5072821;28;20686;-62
2022/06/02 10:35:07;;;;;;;6.22;2.55;;;;;;;29.88;37.14;94922.81;5072889;28;20200;-63
2022/06/02 10:37:42;;;;;;;6.97;2.60;;;;;;;29.99;37.52;94900.91;5072655;28;20184;-67
2022/06/02 10:40:13;;;;;;;4.82;2.38;;;;;;;29.82;37.04;94914.06;5071189;28;20176;-68
2022/06/02 10:42:58;;;;;;;6.10;2.45;;;;;;;30.00;36.47;94924.25;5072602;28;20552;-62
2022/06/02 10:46:01;;;;;;;8.95;2.75;;;;;;;30.47;37.55;94878.13;5072549;28;20175;-65
2022/06/02 10:48:57;;;;;;;4.15;2.65;;;;;;;30.33;35.66;94936.50;5072648;28;20209;-61
2022/06/02 10:52:01;;;;;;;5.28;2.35;;;;;;;30.67;37.38;94872.28;5054212;28;20177;-62
2022/06/02 10:55:17;;;;;;;8.00;2.35;;;;;;;30.86;35.84;94914.78;5041181;28;20225;-63
2022/06/02 10:58:25;;;;;;;7.55;2.78;;;;;;;30.91;37.51;94862.31;5029217;28;20628;-64
2022/06/02 11:01:09;;;;;;;8.02;2.53;;;;;;;31.05;35.57;94910.75;5053453;28;20181;-61
2022/06/02 11:04:01;;;;;;;5.43;2.90;;;;;;;31.10;37.32;94856.41;5070837;28;20291;-62
2022/06/02 11:06:51;;;;;;;4.80;2.67;;;;;;;31.39;36.12;94885.81;5054101;28;20628;-63
2022/06/02 11:09:35;;;;;;;5.65;2.47;;;;;;;31.48;37.34;94854.56;5072533;28;20201;-68
2022/06/02 11:12:25;;;;;;;4.53;2.40;;;;;;;31.59;36.81;94857.03;5072019;28;20239;-65
2022/06/02 11:15:15;;;;;;;5.05;2.38;;;;;;;31.83;36.33;94873.19;5071832;28;20374;-61
2022/06/02 11:18:09;;;;;;;6.60;2.83;;;;;;;31.59;35.41;94900.94;5072090;28;20209;-66
2022/06/02 11:21:00;;;;;;;6.13;2.47;;;;;;;31.48;33.33;94936.88;5053768;28;20229;-62
2022/06/02 11:23:35;;;;;;;4.13;2.30;;;;;;;31.46;34.98;94899.53;5071377;28;20263;-61
2022/06/02 11:26:30;;;;;;;6.55;2.78;;;;;;;31.71;37.11;94843.66;5071947;28;20199;-66
2022/06/02 11:29:23;;;;;;;4.75;2.55;;;;;;;31.95;36.58;94855.38;5072303;28;20209;-62
2022/06/02 11:32:06;;;;;;;6.25;2.70;;;;;;;32.12;36.71;94856.75;5071779;28;20173;-61
2022/06/02 11:34:59;;;;;;;4.50;2.40;;;;;;;31.75;34.03;94907.84;5070470;28;20305;-67
2022/06/02 11:37:58;;;;;;;4.20;2.40;;;;;;;31.95;33.20;94921.16;5071781;28;20242;-62
2022/06/02 11:40:41;;;;;;;7.07;2.30;;;;;;;31.93;34.05;94891.66;5071695;28;20631;-66
2022/06/02 11:43:13;;;;;;;3.60;2.50;;;;;;;32.17;36.11;94832.28;5071807;28;20197;-65
2022/06/02 11:45:44;;;;;;;7.53;2.97;;;;;;;32.50;36.85;94831.88;5070066;28;20209;-63
2022/06/02 11:48:29;;;;;;;36.63;21.90;;;;;;;32.63;37.48;94820.81;5070230;28;20259;-61
2022/06/02 11:51:16;;;;;;;7.40;2.70;;;;;;;32.84;36.69;94826.91;5053510;28;20168;-66
2022/06/02 11:54:03;;;;;;;5.75;2.58;;;;;;;32.93;33.42;94917.53;5053621;28;20215;-63
2022/06/02 11:56:44;;;;;;;8.68;3.08;;;;;;;31.32;34.47;94859.72;5071693;28;20173;-61
2022/06/02 11:59:39;;;;;;;8.52;2.80;;;;;;;31.83;36.15;94821.38;5072249;28;20207;-62
2022/06/02 12:02:29;;;;;;;5.32;2.72;;;;;;;32.33;36.80;94797.06;5071444;22;20242;-61
2022/06/02 12:05:11;;;;;;;4.53;2.60;;;;;;;32.34;35.52;94838.13;5071791;28;20514;-65
2022/06/02 12:08:03;;;;;;;5.82;2.60;;;;;;;32.03;38.82;94749.63;5071661;28;20212;-64
2022/06/02 12:11:12;;;;;;;8.10;2.72;;;;;;;31.78;37.78;94778.44;5071321;28;20197;-62
2022/06/02 12:13:44;;;;;;;4.65;2.88;;;;;;;31.97;39.67;94740.16;5092247;22;20289;-61
2022/06/02 12:16:35;;;;;;;5.88;3.17;;;;;;;32.06;38.67;94762.25;5095510;28;20255;-62
2022/06/02 12:19:49;;;;;;;4.70;2.53;;;;;;;32.16;36.66;94810.44;5095576;28;20273;-61
2022/06/02 12:22:26;;;;;;;4.80;2.78;;;;;;;31.95;36.72;94800.13;5023386;28;20273;-63
2022/06/02 12:25:22;;;;;;;3.38;2.72;;;;;;;31.58;35.59;94828.34;5095513;28;20187;-63
2022/06/02 12:28:13;;;;;;;4.80;2.42;;;;;;;31.06;36.99;94788.84;5077093;28;20359;-62
2022/06/02 12:30:54;;;;;;;4.88;2.58;;;;;;;31.21;38.90;94745.06;5039671;28;20281;-63
2022/06/02 12:33:36;;;;;;;5.90;3.22;;;;;;;30.94;40.12;94728.63;5094908;28;20256;-63
2022/06/02 12:36:39;;;;;;;6.50;3.03;;;;;;;30.53;40.62;94718.84;5095059;28;20164;-63
2022/06/02 12:39:29;;;;;;;10.88;3.25;;;;;;;30.06;42.40;94673.31;5095200;28;20326;-60
2022/06/02 12:42:20;;;;;;;3.80;2.95;;;;;;;29.89;43.04;94659.53;5094890;28;20612;-63
2022/06/02 12:44:58;;;;;;;5.90;2.80;;;;;;;29.63;44.67;94643.53;5056588;28;20204;-62
2022/06/02 12:47:52;;;;;;;3.10;2.60;;;;;;;29.53;42.33;94697.66;5095096;28;20253;-63
2022/06/02 12:50:18;;;;;;;7.82;2.58;;;;;;;29.12;44.46;94657.09;5094844;28;20191;-64
2022/06/02 12:53:00;;;;;;;3.92;2.80;;;;;;;29.02;45.60;94626.34;5076590;28;20656;-66
2022/06/02 12:55:38;;;;;;;3.53;2.60;;;;;;;29.21;46.01;94629.44;5094491;28;20169;-64
2022/06/02 12:58:38;;;;;;;5.35;2.78;;;;;;;29.33;46.59;94629.31;5076006;28;20279;-63
2022/06/02 13:01:41;;;;;;;10.23;4.25;;;;;;;29.22;44.60;94669.53;5090192;28;20184;-63
2022/06/02 13:04:28;;;;;;;24.33;15.05;;;;;;;29.12;47.04;94614.38;5076324;28;20212;-63
2022/06/02 13:07:12;;;;;;;15.43;7.80;;;;;;;29.03;45.58;94640.19;5094273;28;20196;-62
2022/06/02 13:09:53;;;;;;;5.63;4.15;;;;;;;28.71;45.46;94647.13;5094319;28;20212;-64
2022/06/02 13:12:48;;;;;;;6.13;4.50;;;;;;;28.74;45.73;94639.59;5094141;28;20703;-63
2022/06/02 13:15:44;;;;;;;5.50;3.40;;;;;;;28.44;45.70;94630.50;5075918;28;20245;-63